Time;durP1;ratioP1;P1;durP2;ratioP2;P2;SDS_P1;SDS_P2;PMS_P1;PMS_P2;Temp;Humidity;BMP_temperature;BMP_pressure;BME280_temperature;BME280_humidity;BME280_pressure;Samples;Min_cycle;Max_cycle;Signal;HPM_P1;HPM_P2
2022/03/03 00:02:15;;;;;;;11.40;6.38;;;;;;;;;;5090210;28;20062;-59
2022/03/03 00:04:40;;;;;;;11.93;6.47;;;;;;;;;;5090476;28;20107;-59
2022/03/03 00:07:06;;;;;;;16.65;6.75;;;;;;;;;;5090680;28;20367;-62
2022/03/03 00:09:32;;;;;;;13.75;7.10;;;;;;;;;;5089020;28;20372;-59
2022/03/03 00:11:57;;;;;;;15.43;7.18;;;;;;;;;;5090104;28;20205;-62
2022/03/03 00:14:23;;;;;;;14.35;7.25;;;;;;;;;;5089574;28;20073;-60
2022/03/03 00:16:48;;;;;;;12.88;6.55;;;;;;;;;;5089816;28;20047;-59
2022/03/03 00:19:14;;;;;;;18.60;6.97;;;;;;;;;;5090091;28;20065;-63
2022/03/03 00:21:40;;;;;;;14.00;6.55;;;;;;;;;;5089746;28;20032;-61
2022/03/03 00:24:07;;;;;;;18.58;7.28;;;;;;;;;;5090019;28;20028;-62
2022/03/03 00:26:32;;;;;;;12.88;6.63;;;;;;;;;;5089651;28;20030;-62
2022/03/03 00:28:57;;;;;;;13.45;7.07;;;;;;;;;;5089596;28;20468;-62
2022/03/03 00:31:23;;;;;;;12.00;6.70;;;;;;;;;;5090458;28;20047;-61
2022/03/03 00:33:49;;;;;;;10.98;6.25;;;;;;;;;;5089688;28;20116;-62
2022/03/03 00:36:14;;;;;;;12.30;6.57;;;;;;;;;;5089100;28;20035;-60
2022/03/03 00:38:40;;;;;;;11.82;6.45;;;;;;;;;;5090315;28;20119;-61
2022/03/03 00:41:05;;;;;;;14.63;6.72;;;;;;;;;;5087733;28;20064;-62
2022/03/03 00:43:31;;;;;;;12.63;6.95;;;;;;;;;;5089865;28;20051;-62
2022/03/03 00:45:56;;;;;;;14.50;6.72;;;;;;;;;;5089027;28;20453;-61
2022/03/03 00:48:21;;;;;;;13.75;6.63;;;;;;;;;;5087553;28;20040;-61
2022/03/03 00:50:47;;;;;;;12.65;6.80;;;;;;;;;;5088470;28;20031;-62
2022/03/03 00:53:12;;;;;;;13.60;6.72;;;;;;;;;;5087616;28;20480;-61
2022/03/03 00:55:39;;;;;;;12.45;6.38;;;;;;;;;;5086670;28;20111;-62
2022/03/03 00:58:04;;;;;;;13.40;6.78;;;;;;;;;;5090218;28;20027;-62
2022/03/03 01:00:31;;;;;;;11.68;6.68;;;;;;;;;;5089303;28;21327;-61
2022/03/03 01:02:57;;;;;;;14.15;6.90;;;;;;;;;;5089502;28;20353;-58
2022/03/03 01:05:22;;;;;;;13.13;7.07;;;;;;;;;;5089060;28;20844;-59
2022/03/03 01:07:50;;;;;;;14.13;7.40;;;;;;;;;;5091570;28;20162;-62
2022/03/03 01:10:16;;;;;;;16.42;7.07;;;;;;;;;;5086196;28;20028;-59
2022/03/03 01:12:42;;;;;;;12.18;7.10;;;;;;;;;;5090661;28;20047;-61
2022/03/03 01:15:09;;;;;;;14.70;7.07;;;;;;;;;;5088102;28;20024;-61
2022/03/03 01:17:35;;;;;;;12.65;7.05;;;;;;;;;;5088704;28;20024;-61
2022/03/03 01:20:01;;;;;;;18.73;7.68;;;;;;;;;;5085084;28;20028;-60
2022/03/03 01:22:27;;;;;;;13.57;7.10;;;;;;;;;;5089104;28;20697;-62
2022/03/03 01:24:53;;;;;;;15.65;7.35;;;;;;;;;;5088541;28;20074;-60
2022/03/03 01:27:19;;;;;;;12.75;6.85;;;;;;;;;;5087237;28;20024;-60
2022/03/03 01:29:44;;;;;;;12.68;6.57;;;;;;;;;;5087138;28;20404;-63
2022/03/03 01:32:10;;;;;;;15.63;7.43;;;;;;;;;;5088604;28;20039;-60
2022/03/03 01:34:37;;;;;;;12.75;7.32;;;;;;;;;;5088612;28;20028;-59
2022/03/03 01:37:03;;;;;;;12.60;7.05;;;;;;;;;;5089574;28;20059;-61
2022/03/03 01:39:28;;;;;;;13.25;6.68;;;;;;;;;;5087319;28;20070;-60
2022/03/03 01:41:54;;;;;;;12.68;6.63;;;;;;;;;;5088665;28;20039;-61
2022/03/03 01:44:19;;;;;;;15.23;7.18;;;;;;;;;;5091493;28;20102;-60
2022/03/03 01:46:54;;;;;;;11.02;6.72;;;;;;;;;;5087782;28;20035;-62
2022/03/03 01:49:19;;;;;;;11.73;6.85;;;;;;;;;;5087927;28;20068;-58
2022/03/03 01:51:45;;;;;;;12.43;6.72;;;;;;;;;;5085683;28;20561;-63
2022/03/03 01:54:11;;;;;;;16.10;7.57;;;;;;;;;;5085651;28;20058;-60
2022/03/03 01:56:38;;;;;;;13.80;7.03;;;;;;;;;;5086468;28;20031;-57
2022/03/03 01:59:04;;;;;;;14.32;7.55;;;;;;;;;;5087980;28;20028;-61
2022/03/03 02:01:31;;;;;;;12.65;6.43;;;;;;;;;;5084832;28;20043;-61
2022/03/03 02:03:57;;;;;;;12.30;6.75;;;;;;;;;;5086985;28;20036;-60
2022/03/03 02:06:24;;;;;;;14.05;6.80;;;;;;;;;;5085741;28;20055;-60
2022/03/03 02:08:49;;;;;;;10.55;6.72;;;;;;;;;;5088119;28;20031;-60
2022/03/03 02:11:15;;;;;;;12.05;7.43;;;;;;;;;;5083223;28;20560;-59
2022/03/03 02:13:41;;;;;;;12.52;6.38;;;;;;;;;;5085836;28;20027;-60
2022/03/03 02:16:08;;;;;;;12.98;6.43;;;;;;;;;;5084776;28;20024;-63
2022/03/03 02:18:39;;;;;;;12.68;7.15;;;;;;;;;;5087118;28;20027;-59
2022/03/03 02:21:05;;;;;;;16.88;7.20;;;;;;;;;;5087649;28;20657;-62
2022/03/03 02:23:30;;;;;;;12.60;6.68;;;;;;;;;;5088672;28;20134;-60
2022/03/03 02:25:56;;;;;;;15.43;7.10;;;;;;;;;;5084947;28;20438;-57
2022/03/03 02:28:21;;;;;;;12.32;6.70;;;;;;;;;;5088703;28;20063;-60
2022/03/03 02:31:00;;;;;;;10.55;6.05;;;;;;;;;;4017753;28;10001981;-59
2022/03/03 02:33:25;;;;;;;15.35;7.13;;;;;;;;;;1752722;28;10002295;-58
2022/03/03 02:35:51;;;;;;;12.70;7.10;;;;;;;;;;5088397;28;20043;-59
2022/03/03 02:38:16;;;;;;;13.05;7.78;;;;;;;;;;5091823;28;20053;-58
2022/03/03 02:40:41;;;;;;;13.70;6.55;;;;;;;;;;5089563;28;20151;-55
2022/03/03 02:43:07;;;;;;;14.55;6.95;;;;;;;;;;5091070;28;20043;-59
2022/03/03 02:45:32;;;;;;;16.48;7.53;;;;;;;;;;5092007;28;20030;-59
2022/03/03 02:47:58;;;;;;;14.93;7.32;;;;;;;;;;5092417;28;20047;-58
2022/03/03 02:50:26;;;;;;;19.48;7.15;;;;;;;;;;5090005;28;20055;-57
2022/03/03 02:52:52;;;;;;;14.68;6.88;;;;;;;;;;5089266;28;20028;-59
2022/03/03 02:55:18;;;;;;;14.25;7.18;;;;;;;;;;5091001;28;20541;-59
2022/03/03 02:57:53;;;;;;;13.60;7.10;;;;;;;;;;5089528;28;20048;-59
2022/03/03 03:00:23;;;;;;;13.30;6.78;;;;;;;;;;5089813;28;20035;-59
2022/03/03 03:02:49;;;;;;;10.75;6.28;;;;;;;;;;5090397;28;20036;-60
2022/03/03 03:05:14;;;;;;;13.32;7.05;;;;;;;;;;5092562;28;20528;-60
2022/03/03 03:07:39;;;;;;;17.40;7.35;;;;;;;;;;5089669;28;20012;-59
2022/03/03 03:10:06;;;;;;;13.98;7.15;;;;;;;;;;5091362;28;20023;-61
2022/03/03 03:12:32;;;;;;;11.85;6.80;;;;;;;;;;5089967;28;20028;-58
2022/03/03 03:14:57;;;;;;;12.80;6.72;;;;;;;;;;5090194;28;20039;-60
2022/03/03 03:17:23;;;;;;;14.15;7.55;;;;;;;;;;5090407;28;20031;-60
2022/03/03 03:19:48;;;;;;;14.52;6.63;;;;;;;;;;5090150;28;20024;-61
2022/03/03 03:22:14;;;;;;;15.10;7.10;;;;;;;;;;5088784;28;20021;-61
2022/03/03 03:24:39;;;;;;;12.90;6.65;;;;;;;;;;5088455;28;20030;-59
2022/03/03 03:27:05;;;;;;;11.35;6.90;;;;;;;;;;5090916;28;20032;-59
2022/03/03 03:29:30;;;;;;;14.60;7.20;;;;;;;;;;5091292;28;20134;-55
2022/03/03 03:31:56;;;;;;;15.20;7.28;;;;;;;;;;5090382;28;20027;-58
2022/03/03 03:34:21;;;;;;;15.18;7.72;;;;;;;;;;5090188;28;20028;-58
2022/03/03 03:36:47;;;;;;;14.68;7.20;;;;;;;;;;5087972;22;20843;-60
2022/03/03 03:39:12;;;;;;;10.18;6.00;;;;;;;;;;5060560;22;20045;-63
2022/03/03 03:41:38;;;;;;;13.93;6.95;;;;;;;;;;5031646;28;20108;-58
2022/03/03 03:44:03;;;;;;;16.08;7.55;;;;;;;;;;5032466;28;20033;-61
2022/03/03 03:46:28;;;;;;;14.45;6.97;;;;;;;;;;5022638;22;20619;-57
2022/03/03 03:48:54;;;;;;;18.45;7.47;;;;;;;;;;4987323;28;20027;-57
2022/03/03 03:51:19;;;;;;;14.05;6.78;;;;;;;;;;4990902;28;20022;-57
2022/03/03 03:53:45;;;;;;;13.95;7.00;;;;;;;;;;4987791;28;20027;-53
2022/03/03 03:56:10;;;;;;;14.77;7.40;;;;;;;;;;4989302;28;20034;-54
2022/03/03 03:58:35;;;;;;;14.38;6.85;;;;;;;;;;4988390;28;20106;-55
2022/03/03 04:01:01;;;;;;;14.68;7.15;;;;;;;;;;4987172;28;20049;-52
2022/03/03 04:03:26;;;;;;;13.27;6.63;;;;;;;;;;4988582;28;20036;-54
2022/03/03 04:05:52;;;;;;;12.25;6.70;;;;;;;;;;4990073;28;20401;-58
2022/03/03 04:08:18;;;;;;;12.38;6.97;;;;;;;;;;4985624;28;20029;-51
2022/03/03 04:10:44;;;;;;;13.40;7.10;;;;;;;;;;4989276;28;20556;-56
2022/03/03 04:13:10;;;;;;;12.18;6.68;;;;;;;;;;4987007;28;20037;-55
2022/03/03 04:15:35;;;;;;;13.50;6.93;;;;;;;;;;4988839;28;20605;-57
2022/03/03 04:18:01;;;;;;;14.40;7.20;;;;;;;;;;4987063;28;20045;-51
2022/03/03 04:20:27;;;;;;;15.80;7.22;;;;;;;;;;4989890;28;20029;-58
2022/03/03 04:22:59;;;;;;;16.20;7.78;;;;;;;;;;4988872;28;20089;-55
2022/03/03 04:25:25;;;;;;;14.45;6.90;;;;;;;;;;4988418;28;20042;-54
2022/03/03 04:27:51;;;;;;;12.48;6.63;;;;;;;;;;4987346;28;20034;-52
2022/03/03 04:30:16;;;;;;;14.30;6.43;;;;;;;;;;4986292;28;20042;-53
2022/03/03 04:32:42;;;;;;;12.40;6.70;;;;;;;;;;4986843;28;20036;-56
2022/03/03 04:35:09;;;;;;;14.38;6.70;;;;;;;;;;4990671;28;20405;-55
2022/03/03 04:37:35;;;;;;;14.65;7.40;;;;;;;;;;4987827;28;20030;-53
2022/03/03 04:40:01;;;;;;;13.15;7.53;;;;;;;;;;4989141;28;20038;-58
2022/03/03 04:42:26;;;;;;;12.90;7.13;;;;;;;;;;4987472;28;20044;-54
2022/03/03 04:44:51;;;;;;;12.80;6.95;;;;;;;;;;4989109;28;20109;-53
2022/03/03 04:47:17;;;;;;;12.95;7.13;;;;;;;;;;4986492;28;20026;-50
2022/03/03 04:49:42;;;;;;;18.35;8.00;;;;;;;;;;4985463;28;20034;-55
2022/03/03 04:52:08;;;;;;;16.08;6.82;;;;;;;;;;4987939;28;20465;-55
2022/03/03 04:54:33;;;;;;;15.40;7.53;;;;;;;;;;4987933;28;20034;-52
2022/03/03 04:56:59;;;;;;;17.38;7.70;;;;;;;;;;4989051;28;20506;-52
2022/03/03 04:59:24;;;;;;;18.45;7.88;;;;;;;;;;4987507;28;20032;-54
2022/03/03 05:01:51;;;;;;;14.27;7.72;;;;;;;;;;4986629;28;20034;-48
2022/03/03 05:04:19;;;;;;;15.45;7.45;;;;;;;;;;4986464;28;20034;-46
2022/03/03 05:06:46;;;;;;;15.15;8.35;;;;;;;;;;4986866;28;20029;-46
2022/03/03 05:09:11;;;;;;;14.13;7.85;;;;;;;;;;4985294;28;20036;-46
2022/03/03 05:11:37;;;;;;;14.35;7.13;;;;;;;;;;4988015;28;20053;-47
2022/03/03 05:14:02;;;;;;;18.02;8.32;;;;;;;;;;4987410;28;20034;-48
2022/03/03 05:16:28;;;;;;;18.15;8.32;;;;;;;;;;4989020;28;20393;-49
2022/03/03 05:18:53;;;;;;;18.40;8.48;;;;;;;;;;4972015;28;20070;-46
2022/03/03 05:21:19;;;;;;;20.13;8.88;;;;;;;;;;4987261;28;20033;-47
2022/03/03 05:23:44;;;;;;;17.00;8.50;;;;;;;;;;4987832;28;20042;-51
2022/03/03 05:26:10;;;;;;;16.60;8.05;;;;;;;;;;4975608;28;20026;-48
2022/03/03 05:28:35;;;;;;;16.38;7.90;;;;;;;;;;4986617;28;20034;-46
2022/03/03 05:31:01;;;;;;;13.52;7.45;;;;;;;;;;4985613;28;20034;-47
2022/03/03 05:33:27;;;;;;;15.88;7.57;;;;;;;;;;4986304;28;20038;-48
2022/03/03 05:35:58;;;;;;;17.23;7.78;;;;;;;;;;4984796;28;20022;-46
2022/03/03 05:38:28;;;;;;;15.70;8.05;;;;;;;;;;4985317;28;20169;-46
2022/03/03 05:40:54;;;;;;;13.73;7.63;;;;;;;;;;4985061;28;20080;-46
2022/03/03 05:43:19;;;;;;;15.20;7.65;;;;;;;;;;4985648;28;20468;-47
2022/03/03 05:45:47;;;;;;;15.82;8.05;;;;;;;;;;4985076;28;20026;-46
2022/03/03 05:48:16;;;;;;;16.15;7.55;;;;;;;;;;4984291;28;20031;-46
2022/03/03 05:50:41;;;;;;;17.50;9.02;;;;;;;;;;4986491;28;20381;-47
2022/03/03 05:53:07;;;;;;;17.98;7.95;;;;;;;;;;4985463;28;20034;-45
2022/03/03 05:55:41;;;;;;;19.50;8.63;;;;;;;;;;4971405;28;20030;-47
2022/03/03 05:58:13;;;;;;;17.63;8.52;;;;;;;;;;4990098;28;20034;-46
2022/03/03 06:00:39;;;;;;;16.50;8.47;;;;;;;;;;4987503;28;20037;-48
2022/03/03 06:03:07;;;;;;;14.02;7.50;;;;;;;;;;4985450;28;20033;-47
2022/03/03 06:05:40;;;;;;;17.95;8.13;;;;;;;;;;4985636;28;20049;-53
2022/03/03 06:08:06;;;;;;;18.17;8.07;;;;;;;;;;4986342;28;20034;-48
2022/03/03 06:10:34;;;;;;;18.27;8.18;;;;;;;;;;4985368;28;20509;-47
2022/03/03 06:13:32;;;;;;;14.38;8.02;;;;;;;;;;4986616;28;20038;-45
2022/03/03 06:15:57;;;;;;;16.98;8.30;;;;;;;;;;4970983;28;20489;-47
2022/03/03 06:18:28;;;;;;;17.80;8.35;;;;;;;;;;4985735;28;20058;-46
2022/03/03 06:20:54;;;;;;;18.02;9.02;;;;;;;;;;4986791;28;20026;-46
2022/03/03 06:23:20;;;;;;;15.88;8.15;;;;;;;;;;4984517;28;20161;-48
2022/03/03 06:26:06;;;;;;;17.23;8.50;;;;;;;;;;4972591;28;20034;-47
2022/03/03 06:28:32;;;;;;;17.55;8.40;;;;;;;;;;4988446;28;20121;-49
2022/03/03 06:30:58;;;;;;;15.40;8.35;;;;;;;;;;4970040;28;20117;-48
2022/03/03 06:33:25;;;;;;;18.45;8.18;;;;;;;;;;4987986;28;20113;-47
2022/03/03 06:35:51;;;;;;;16.17;8.50;;;;;;;;;;4986715;28;20514;-47
2022/03/03 06:38:17;;;;;;;38.38;9.07;;;;;;;;;;4984623;28;20382;-49
2022/03/03 06:40:43;;;;;;;21.90;9.55;;;;;;;;;;4986093;28;20504;-47
2022/03/03 06:43:08;;;;;;;19.42;9.63;;;;;;;;;;4987182;28;20035;-47
2022/03/03 06:45:34;;;;;;;20.23;9.38;;;;;;;;;;4985530;28;20061;-49
2022/03/03 06:48:06;;;;;;;18.00;8.43;;;;;;;;;;4970626;28;20034;-46
2022/03/03 06:50:36;;;;;;;16.10;9.38;;;;;;;;;;4986034;28;20030;-46
2022/03/03 06:53:03;;;;;;;17.15;8.63;;;;;;;;;;4987800;28;20486;-46
2022/03/03 06:55:30;;;;;;;19.80;9.27;;;;;;;;;;4985976;28;20030;-46
2022/03/03 06:57:57;;;;;;;15.88;9.05;;;;;;;;;;4986856;28;20053;-46
2022/03/03 07:00:26;;;;;;;14.40;8.18;;;;;;;;;;4985883;28;20767;-48
2022/03/03 07:02:52;;;;;;;19.55;9.07;;;;;;;;;;4984931;28;20108;-48
2022/03/03 07:05:18;;;;;;;24.83;8.88;;;;;;;;;;4984490;28;20026;-47
2022/03/03 07:07:47;;;;;;;18.15;10.40;;;;;;;;;;4985917;28;20036;-47
2022/03/03 07:10:14;;;;;;;19.60;9.40;;;;;;;;;;4985524;28;20113;-46
2022/03/03 07:12:40;;;;;;;18.02;9.32;;;;;;;;;;4984588;28;20695;-48
2022/03/03 07:15:08;;;;;;;18.13;8.93;;;;;;;;;;4986963;28;20109;-46
2022/03/03 07:17:49;;;;;;;18.55;9.38;;;;;;;;;;4987184;28;20511;-47
2022/03/03 07:20:22;;;;;;;19.23;8.98;;;;;;;;;;4983353;28;20027;-46
2022/03/03 07:23:04;;;;;;;19.25;10.00;;;;;;;;;;4986162;28;20045;-48
2022/03/03 07:25:39;;;;;;;20.27;9.88;;;;;;;;;;4988417;28;20035;-45
2022/03/03 07:28:11;;;;;;;22.25;10.18;;;;;;;;;;4989122;28;20053;-48
2022/03/03 07:30:42;;;;;;;20.80;10.50;;;;;;;;;;4987687;28;20533;-48
2022/03/03 07:33:12;;;;;;;20.60;9.63;;;;;;;;;;4974285;28;20093;-48
2022/03/03 07:35:41;;;;;;;20.45;9.18;;;;;;;;;;4988996;28;20038;-47
2022/03/03 07:38:15;;;;;;;22.13;9.98;;;;;;;;;;4991019;28;20030;-49
2022/03/03 07:40:42;;;;;;;19.58;9.35;;;;;;;;;;4987944;28;20121;-46
2022/03/03 07:43:08;;;;;;;20.50;10.00;;;;;;;;;;4988636;28;20081;-47
2022/03/03 07:45:37;;;;;;;18.23;9.95;;;;;;;;;;4988897;28;20702;-49
2022/03/03 07:48:03;;;;;;;19.67;9.80;;;;;;;;;;4989415;28;20049;-46
2022/03/03 07:50:28;;;;;;;17.25;9.40;;;;;;;;;;4988405;28;20038;-47
2022/03/03 07:52:54;;;;;;;21.40;10.32;;;;;;;;;;4988935;28;20030;-46
2022/03/03 07:55:21;;;;;;;21.05;10.20;;;;;;;;;;4988396;28;20038;-48
2022/03/03 07:57:58;;;;;;;21.00;10.02;;;;;;;;;;4990222;28;20405;-50
2022/03/03 08:00:27;;;;;;;21.85;9.70;;;;;;;;;;4986856;28;20034;-49
2022/03/03 08:02:53;;;;;;;16.73;9.23;;;;;;;;;;4988569;28;20220;-46
2022/03/03 08:05:20;;;;;;;21.67;10.15;;;;;;;;;;4988839;28;20042;-47
2022/03/03 08:07:46;;;;;;;24.15;10.75;;;;;;;;;;4985722;28;20022;-47
2022/03/03 08:10:14;;;;;;;18.60;9.80;;;;;;;;;;4988291;28;20030;-48
2022/03/03 08:12:41;;;;;;;17.15;9.40;;;;;;;;;;4987014;28;20026;-51
2022/03/03 08:15:08;;;;;;;22.15;9.90;;;;;;;;;;4990149;28;20046;-46
2022/03/03 08:17:34;;;;;;;20.23;9.93;;;;;;;;;;4985811;28;20430;-46
2022/03/03 08:20:02;;;;;;;17.77;10.23;;;;;;;;;;4989145;28;20101;-47
2022/03/03 08:22:28;;;;;;;19.20;9.77;;;;;;;;;;4988349;28;20061;-49
2022/03/03 08:24:55;;;;;;;18.98;10.35;;;;;;;;;;4987994;28;20068;-47
2022/03/03 08:27:22;;;;;;;20.42;10.88;;;;;;;;;;4989242;28;20037;-46
2022/03/03 08:29:48;;;;;;;19.05;9.65;;;;;;;;;;4989713;28;20500;-46
2022/03/03 08:32:16;;;;;;;21.80;9.95;;;;;;;;;;4988538;28;20030;-49
2022/03/03 08:35:07;;;;;;;19.67;10.07;;;;;;;;;;4989375;28;20029;-49
2022/03/03 08:37:39;;;;;;;21.50;8.98;;;;;;;;;;4988228;28;20157;-45
2022/03/03 08:40:07;;;;;;;19.58;9.98;;;;;;;;;;4987114;28;20482;-48
2022/03/03 08:42:38;;;;;;;18.38;10.88;;;;;;;;;;4988728;28;20027;-46
2022/03/03 08:45:06;;;;;;;24.42;10.32;;;;;;;;;;4988081;28;20105;-47
2022/03/03 08:47:32;;;;;;;19.77;10.40;;;;;;;;;;4990222;28;20034;-48
2022/03/03 08:50:03;;;;;;;22.25;10.05;;;;;;;;;;4988295;28;20489;-47
2022/03/03 08:52:29;;;;;;;17.33;9.68;;;;;;;;;;4989098;28;20041;-48
2022/03/03 08:54:55;;;;;;;19.60;10.27;;;;;;;;;;4988691;28;20030;-47
2022/03/03 08:57:21;;;;;;;21.23;11.05;;;;;;;;;;4987187;28;20066;-47
2022/03/03 08:59:46;;;;;;;17.70;10.27;;;;;;;;;;4986421;28;20100;-49
2022/03/03 09:02:18;;;;;;;18.58;9.77;;;;;;;;;;4986496;28;20038;-49
2022/03/03 09:04:45;;;;;;;18.02;10.02;;;;;;;;;;4987858;28;20115;-47
2022/03/03 09:07:11;;;;;;;20.30;10.68;;;;;;;;;;4986863;28;20041;-47
2022/03/03 09:09:36;;;;;;;20.85;10.00;;;;;;;;;;4972101;28;20022;-47
2022/03/03 09:12:03;;;;;;;20.35;10.30;;;;;;;;;;4989731;28;20056;-47
2022/03/03 09:14:30;;;;;;;25.08;10.50;;;;;;;;;;4987152;28;20026;-50
2022/03/03 09:16:55;;;;;;;21.13;11.27;;;;;;;;;;4987849;28;20084;-48
2022/03/03 09:19:21;;;;;;;28.05;11.38;;;;;;;;;;4986571;28;20022;-52
2022/03/03 09:21:47;;;;;;;18.23;10.63;;;;;;;;;;4988383;28;20037;-53
2022/03/03 09:24:12;;;;;;;22.10;10.13;;;;;;;;;;4989828;28;20030;-49
2022/03/03 09:26:38;;;;;;;24.23;9.40;;;;;;;;;;4987385;28;20034;-54
2022/03/03 09:29:03;;;;;;;23.27;10.73;;;;;;;;;;4990048;28;20027;-49
2022/03/03 09:31:29;;;;;;;22.60;9.73;;;;;;;;;;4987164;28;20014;-52
2022/03/03 09:33:54;;;;;;;21.75;10.65;;;;;;;;;;4988218;28;20030;-47
2022/03/03 09:36:19;;;;;;;21.02;10.35;;;;;;;;;;4987690;28;20030;-48
2022/03/03 09:38:45;;;;;;;20.50;10.20;;;;;;;;;;4986308;28;20226;-46
2022/03/03 09:41:12;;;;;;;17.50;9.35;;;;;;;;;;4987627;28;20120;-49
2022/03/03 09:43:40;;;;;;;17.85;9.27;;;;;;;;;;4986644;28;20030;-47
2022/03/03 09:46:05;;;;;;;21.30;9.52;;;;;;;;;;4985724;28;20058;-48
2022/03/03 09:48:32;;;;;;;26.13;9.32;;;;;;;;;;4985305;28;20038;-48
2022/03/03 09:50:57;;;;;;;17.30;8.77;;;;;;;;;;4987198;28;20030;-49
2022/03/03 09:53:22;;;;;;;16.08;8.63;;;;;;;;;;4987274;28;20056;-47
2022/03/03 09:55:49;;;;;;;19.20;8.75;;;;;;;;;;4986911;28;20037;-47
2022/03/03 09:58:15;;;;;;;15.82;8.32;;;;;;;;;;4989491;28;20478;-49
2022/03/03 10:00:41;;;;;;;18.30;7.55;;;;;;;;;;4988664;28;20326;-51
2022/03/03 10:03:13;;;;;;;18.40;8.60;;;;;;;;;;4986288;28;20452;-51
2022/03/03 10:05:50;;;;;;;17.25;8.55;;;;;;;;;;4988456;28;20026;-51
2022/03/03 10:08:21;;;;;;;17.52;8.23;;;;;;;;;;4987283;28;20430;-47
2022/03/03 10:10:52;;;;;;;18.08;7.97;;;;;;;;;;4985591;28;20038;-48
2022/03/03 10:13:18;;;;;;;15.85;7.65;;;;;;;;;;4987935;28;20472;-47
2022/03/03 10:15:46;;;;;;;18.58;8.38;;;;;;;;;;4985344;28;20422;-47
2022/03/03 10:18:14;;;;;;;15.10;7.80;;;;;;;;;;4988820;28;20041;-49
2022/03/03 10:20:58;;;;;;;19.00;8.70;;;;;;;;;;4985159;28;20026;-46
2022/03/03 10:23:30;;;;;;;19.23;7.93;;;;;;;;;;4986054;28;20092;-48
2022/03/03 10:25:58;;;;;;;19.70;8.73;;;;;;;;;;4987589;28;20113;-48
2022/03/03 10:28:29;;;;;;;17.15;7.97;;;;;;;;;;4986877;28;20113;-46
2022/03/03 10:31:04;;;;;;;15.75;8.20;;;;;;;;;;4986526;28;20507;-52
2022/03/03 10:33:34;;;;;;;15.43;7.68;;;;;;;;;;4985602;28;20065;-50
2022/03/03 10:36:05;;;;;;;15.73;7.15;;;;;;;;;;4988356;28;20498;-49
2022/03/03 10:38:31;;;;;;;20.60;7.20;;;;;;;;;;4987655;28;20039;-47
2022/03/03 10:40:57;;;;;;;13.52;7.57;;;;;;;;;;4988174;28;20034;-52
2022/03/03 10:43:23;;;;;;;13.23;7.00;;;;;;;;;;4973991;28;20034;-47
2022/03/03 10:45:58;;;;;;;13.93;6.40;;;;;;;;;;4988549;28;20045;-51
2022/03/03 10:48:25;;;;;;;14.90;6.90;;;;;;;;;;4968785;28;20030;-52
2022/03/03 10:50:54;;;;;;;11.85;6.70;;;;;;;;;;4971997;28;20046;-49
2022/03/03 10:53:22;;;;;;;10.43;6.18;;;;;;;;;;4985280;28;20053;-47
2022/03/03 10:56:07;;;;;;;12.38;6.68;;;;;;;;;;4984908;28;20041;-48
2022/03/03 10:58:46;;;;;;;13.85;7.55;;;;;;;;;;4986049;28;20109;-48
2022/03/03 11:01:12;;;;;;;17.73;7.05;;;;;;;;;;4988349;28;20026;-47
2022/03/03 11:03:43;;;;;;;16.42;7.20;;;;;;;;;;4987066;28;20030;-50
2022/03/03 11:06:09;;;;;;;17.42;7.30;;;;;;;;;;4991239;28;20041;-47
2022/03/03 11:08:35;;;;;;;11.38;6.55;;;;;;;;;;4990719;28;20485;-48
2022/03/03 11:11:02;;;;;;;15.95;6.93;;;;;;;;;;4991869;28;20036;-48
2022/03/03 11:13:27;;;;;;;13.15;6.97;;;;;;;;;;4990123;28;20112;-47
2022/03/03 11:15:55;;;;;;;11.65;6.80;;;;;;;;;;4990406;28;20125;-47
2022/03/03 11:18:21;;;;;;;14.45;6.85;;;;;;;;;;4988593;28;20500;-47
2022/03/03 11:20:47;;;;;;;15.43;7.10;;;;;;;;;;4987518;28;20120;-49
2022/03/03 11:23:12;;;;;;;11.77;6.53;;;;;;;;;;4988494;28;20553;-47
2022/03/03 11:25:38;;;;;;;13.30;6.60;;;;;;;;;;4990088;28;20113;-49
2022/03/03 11:28:15;;;;;;;12.45;7.28;;;;;;;;;;4990380;28;20501;-51
2022/03/03 11:30:45;;;;;;;10.80;6.53;;;;;;;;;;4986987;28;20038;-49
2022/03/03 11:33:17;;;;;;;10.35;6.55;;;;;;;;;;4974082;28;20034;-49
2022/03/03 11:35:47;;;;;;;13.13;7.05;;;;;;;;;;4987866;28;20121;-47
2022/03/03 11:38:13;;;;;;;15.63;6.47;;;;;;;;;;4991877;28;20382;-48
2022/03/03 11:40:53;;;;;;;16.42;6.82;;;;;;;;;;4987103;28;20037;-47
2022/03/03 11:43:19;;;;;;;11.07;6.70;;;;;;;;;;4988159;28;20502;-49
2022/03/03 11:45:50;;;;;;;8.88;5.65;;;;;;;;;;4988975;28;20073;-51
2022/03/03 11:48:15;;;;;;;10.65;5.93;;;;;;;;;;4989911;28;20054;-50
2022/03/03 11:50:42;;;;;;;11.57;5.68;;;;;;;;;;4988994;28;20041;-51
2022/03/03 11:53:10;;;;;;;11.88;6.32;;;;;;;;;;4991355;28;20022;-50
2022/03/03 11:55:48;;;;;;;13.45;6.20;;;;;;;;;;4987151;28;20061;-50
2022/03/03 11:58:24;;;;;;;11.90;6.20;;;;;;;;;;4987745;28;20277;-48
2022/03/03 12:01:00;;;;;;;12.45;6.50;;;;;;;;;;4972040;28;20553;-47
2022/03/03 12:03:26;;;;;;;9.73;6.25;;;;;;;;;;4989607;28;20030;-47
2022/03/03 12:06:09;;;;;;;13.20;5.82;;;;;;;;;;4989117;28;20533;-51
2022/03/03 12:08:37;;;;;;;9.77;5.90;;;;;;;;;;4990961;28;20494;-50
2022/03/03 12:11:13;;;;;;;11.38;5.90;;;;;;;;;;4989384;28;20041;-52
2022/03/03 12:13:39;;;;;;;16.80;6.40;;;;;;;;;;4988042;28;20045;-48
2022/03/03 12:16:34;;;;;;;11.20;5.88;;;;;;;;;;4973284;28;20026;-47
2022/03/03 12:18:59;;;;;;;12.05;5.75;;;;;;;;;;4986361;28;20375;-48
2022/03/03 12:21:45;;;;;;;10.95;6.07;;;;;;;;;;4990680;28;20041;-51
2022/03/03 12:24:18;;;;;;;11.88;5.75;;;;;;;;;;4988248;28;20400;-48
2022/03/03 12:26:55;;;;;;;11.30;4.93;;;;;;;;;;4987041;28;20052;-49
2022/03/03 12:29:42;;;;;;;9.27;5.68;;;;;;;;;;4989002;28;20513;-48
2022/03/03 12:32:27;;;;;;;8.98;5.43;;;;;;;;;;4975856;28;20038;-47
2022/03/03 12:35:00;;;;;;;8.93;4.88;;;;;;;;;;4989962;28;20418;-49
2022/03/03 12:37:26;;;;;;;;;;;;;;;;;;4989085;28;20034;-47
2022/03/03 12:39:53;;;;;;;11.40;5.05;;;;;;;;;;4988824;28;20420;-48
2022/03/03 12:42:20;;;;;;;7.18;4.25;;;;;;;;;;4987500;28;20556;-48
2022/03/03 12:44:58;;;;;;;16.98;4.50;;;;;;;;;;4989937;28;20027;-49
2022/03/03 12:47:37;;;;;;;9.32;4.05;;;;;;;;;;4988948;28;20106;-51
2022/03/03 12:50:14;;;;;;;8.57;4.63;;;;;;;;;;4971994;28;20072;-49
2022/03/03 12:52:41;;;;;;;4.45;3.33;;;;;;;;;;4990000;28;20450;-48
2022/03/03 12:55:08;;;;;;;5.70;3.17;;;;;;;;;;4971640;28;20073;-49
2022/03/03 12:57:37;;;;;;;5.00;3.03;;;;;;;;;;4988951;28;20034;-49
2022/03/03 13:00:10;;;;;;;7.28;2.95;;;;;;;;;;4990102;28;20033;-49
2022/03/03 13:02:53;;;;;;;7.15;3.50;;;;;;;;;;4989145;28;20034;-48
2022/03/03 13:05:48;;;;;;;7.82;3.38;;;;;;;;;;4988875;28;20041;-49
2022/03/03 13:08:27;;;;;;;4.57;2.60;;;;;;;;;;4988368;28;20026;-47
2022/03/03 13:10:57;;;;;;;5.85;2.40;;;;;;;;;;4987412;28;20446;-49
2022/03/03 13:13:23;;;;;;;8.90;2.60;;;;;;;;;;4987793;28;20057;-48
2022/03/03 13:15:50;;;;;;;4.97;2.58;;;;;;;;;;4987062;28;20080;-47
2022/03/03 13:18:17;;;;;;;4.95;3.20;;;;;;;;;;4987651;28;20711;-47
2022/03/03 13:20:56;;;;;;;6.15;2.83;;;;;;;;;;4988305;28;20486;-51
2022/03/03 13:23:25;;;;;;;8.98;4.00;;;;;;;;;;4987731;28;20316;-49
2022/03/03 13:26:08;;;;;;;5.72;3.70;;;;;;;;;;4987981;28;20511;-48
2022/03/03 13:28:40;;;;;;;9.55;4.10;;;;;;;;;;4987849;28;20034;-49
2022/03/03 13:31:06;;;;;;;7.93;4.18;;;;;;;;;;4987747;28;20414;-49
2022/03/03 13:33:51;;;;;;;7.60;4.00;;;;;;;;;;4987122;28;20045;-51
2022/03/03 13:36:20;;;;;;;6.97;3.80;;;;;;;;;;4987520;28;20037;-53
2022/03/03 13:38:46;;;;;;;6.63;3.70;;;;;;;;;;4988637;28;20429;-50
2022/03/03 13:41:33;;;;;;;5.75;3.83;;;;;;;;;;4986235;28;20053;-52
2022/03/03 13:44:19;;;;;;;8.25;4.35;;;;;;;;;;4986573;28;20126;-47
2022/03/03 13:46:58;;;;;;;9.57;4.75;;;;;;;;;;4987434;28;20041;-50
2022/03/03 13:49:25;;;;;;;9.73;3.70;;;;;;;;;;4988685;28;20545;-50
2022/03/03 13:52:12;;;;;;;6.22;3.65;;;;;;;;;;4987356;28;20092;-47
2022/03/03 13:54:49;;;;;;;7.75;4.13;;;;;;;;;;4987177;28;20032;-52
2022/03/03 13:57:34;;;;;;;7.05;4.18;;;;;;;;;;4983848;28;20126;-47
2022/03/03 14:00:05;;;;;;;10.90;4.70;;;;;;;;;;4986394;28;20100;-50
2022/03/03 14:02:30;;;;;;;8.63;3.95;;;;;;;;;;4983764;28;20034;-47
2022/03/03 14:05:00;;;;;;;7.53;3.53;;;;;;;;;;4985808;28;20022;-48
2022/03/03 14:07:31;;;;;;;6.60;3.70;;;;;;;;;;4986919;28;20061;-49
2022/03/03 14:10:11;;;;;;;6.45;3.70;;;;;;;;;;4984616;28;20069;-46
2022/03/03 14:12:37;;;;;;;8.30;3.85;;;;;;;;;;4987567;28;20101;-48
2022/03/03 14:15:03;;;;;;;9.18;4.32;;;;;;;;;;4986161;28;20113;-49
2022/03/03 14:17:28;;;;;;;6.68;3.80;;;;;;;;;;4987250;28;20105;-49
2022/03/03 14:19:54;;;;;;;9.45;4.22;;;;;;;;;;4986872;28;20397;-48
2022/03/03 14:22:21;;;;;;;6.88;4.10;;;;;;;;;;4986982;28;20030;-47
2022/03/03 14:24:48;;;;;;;6.35;4.50;;;;;;;;;;4986526;28;20042;-48
2022/03/03 14:27:15;;;;;;;13.52;4.75;;;;;;;;;;4986569;28;20152;-49
2022/03/03 14:29:41;;;;;;;9.90;4.78;;;;;;;;;;4985576;28;20034;-49
2022/03/03 14:32:06;;;;;;;7.97;4.50;;;;;;;;;;4987540;28;20034;-48
2022/03/03 14:34:32;;;;;;;9.90;5.05;;;;;;;;;;4989701;28;20088;-49
2022/03/03 14:36:58;;;;;;;7.45;4.53;;;;;;;;;;4992196;28;20422;-50
2022/03/03 14:39:23;;;;;;;7.00;4.88;;;;;;;;;;4994298;28;20033;-51